sensor_id;sensor_type;location;lat;lon;timestamp;P1;durP1;ratioP1;P2;durP2;ratioP2
14939;SDS011;11825;51.898;8.202;2022-12-18T00:04:40;67.40;;;41.97;;
14939;SDS011;11825;51.898;8.202;2022-12-18T00:09:42;62.03;;;38.43;;
14939;SDS011;11825;51.898;8.202;2022-12-18T00:14:44;60.20;;;37.53;;
14939;SDS011;11825;51.898;8.202;2022-12-18T00:19:46;66.90;;;40.67;;
14939;SDS011;11825;51.898;8.202;2022-12-18T00:24:48;66.33;;;40.00;;
14939;SDS011;11825;51.898;8.202;2022-12-18T00:29:50;56.93;;;38.87;;
14939;SDS011;11825;51.898;8.202;2022-12-18T00:34:51;60.50;;;40.23;;
14939;SDS011;11825;51.898;8.202;2022-12-18T00:39:53;59.73;;;38.23;;
14939;SDS011;11825;51.898;8.202;2022-12-18T00:44:55;64.43;;;41.53;;
14939;SDS011;11825;51.898;8.202;2022-12-18T00:49:57;63.13;;;40.00;;
14939;SDS011;11825;51.898;8.202;2022-12-18T00:54:58;56.83;;;37.40;;
14939;SDS011;11825;51.898;8.202;2022-12-18T01:00:07;56.23;;;35.03;;
14939;SDS011;11825;51.898;8.202;2022-12-18T01:05:11;52.83;;;34.90;;
14939;SDS011;11825;51.898;8.202;2022-12-18T01:10:14;52.60;;;35.83;;
14939;SDS011;11825;51.898;8.202;2022-12-18T01:15:16;61.10;;;35.57;;
14939;SDS011;11825;51.898;8.202;2022-12-18T01:20:21;54.20;;;33.23;;
14939;SDS011;11825;51.898;8.202;2022-12-18T01:25:22;45.63;;;32.17;;
14939;SDS011;11825;51.898;8.202;2022-12-18T01:30:24;50.80;;;34.33;;
14939;SDS011;11825;51.898;8.202;2022-12-18T01:35:26;45.10;;;31.93;;
14939;SDS011;11825;51.898;8.202;2022-12-18T01:40:28;47.67;;;32.53;;
14939;SDS011;11825;51.898;8.202;2022-12-18T01:45:31;54.77;;;34.03;;
14939;SDS011;11825;51.898;8.202;2022-12-18T01:50:40;54.60;;;34.27;;
14939;SDS011;11825;51.898;8.202;2022-12-18T01:55:45;49.83;;;33.90;;
14939;SDS011;11825;51.898;8.202;2022-12-18T02:00:48;58.10;;;35.17;;
14939;SDS011;11825;51.898;8.202;2022-12-18T02:05:57;54.27;;;35.50;;
14939;SDS011;11825;51.898;8.202;2022-12-18T02:22:15;58.03;;;34.53;;
14939;SDS011;11825;51.898;8.202;2022-12-18T02:27:34;55.27;;;31.73;;
14939;SDS011;11825;51.898;8.202;2022-12-18T02:32:39;52.97;;;32.20;;
14939;SDS011;11825;51.898;8.202;2022-12-18T02:37:43;44.40;;;29.27;;
14939;SDS011;11825;51.898;8.202;2022-12-18T02:42:46;50.17;;;31.17;;
14939;SDS011;11825;51.898;8.202;2022-12-18T02:47:48;40.93;;;29.10;;
14939;SDS011;11825;51.898;8.202;2022-12-18T02:58:20;47.47;;;28.63;;
14939;SDS011;11825;51.898;8.202;2022-12-18T03:03:52;44.07;;;28.37;;
14939;SDS011;11825;51.898;8.202;2022-12-18T03:08:59;38.87;;;28.00;;
14939;SDS011;11825;51.898;8.202;2022-12-18T03:14:05;43.87;;;26.60;;
14939;SDS011;11825;51.898;8.202;2022-12-18T03:19:09;44.30;;;27.13;;
14939;SDS011;11825;51.898;8.202;2022-12-18T03:24:13;45.53;;;27.67;;
14939;SDS011;11825;51.898;8.202;2022-12-18T03:29:19;45.07;;;26.63;;
14939;SDS011;11825;51.898;8.202;2022-12-18T03:34:26;42.63;;;25.40;;
14939;SDS011;11825;51.898;8.202;2022-12-18T03:39:31;44.77;;;27.10;;
14939;SDS011;11825;51.898;8.202;2022-12-18T03:49:50;37.20;;;26.07;;
14939;SDS011;11825;51.898;8.202;2022-12-18T03:55:16;42.73;;;23.43;;
14939;SDS011;11825;51.898;8.202;2022-12-18T04:00:19;41.53;;;26.97;;
14939;SDS011;11825;51.898;8.202;2022-12-18T04:05:22;41.30;;;24.93;;
14939;SDS011;11825;51.898;8.202;2022-12-18T04:10:25;37.60;;;22.80;;
14939;SDS011;11825;51.898;8.202;2022-12-18T04:15:27;29.37;;;21.50;;
14939;SDS011;11825;51.898;8.202;2022-12-18T04:20:29;34.10;;;20.53;;
14939;SDS011;11825;51.898;8.202;2022-12-18T04:25:31;32.27;;;19.80;;
14939;SDS011;11825;51.898;8.202;2022-12-18T04:30:32;27.63;;;19.27;;
14939;SDS011;11825;51.898;8.202;2022-12-18T04:35:34;28.40;;;18.97;;
14939;SDS011;11825;51.898;8.202;2022-12-18T04:40:36;30.30;;;20.20;;
14939;SDS011;11825;51.898;8.202;2022-12-18T04:45:38;28.67;;;19.87;;
14939;SDS011;11825;51.898;8.202;2022-12-18T04:50:40;31.10;;;19.40;;
14939;SDS011;11825;51.898;8.202;2022-12-18T04:55:42;30.27;;;19.37;;
14939;SDS011;11825;51.898;8.202;2022-12-18T05:00:44;32.40;;;19.53;;
14939;SDS011;11825;51.898;8.202;2022-12-18T05:05:49;42.80;;;24.83;;
14939;SDS011;11825;51.898;8.202;2022-12-18T05:11:25;29.40;;;20.20;;
14939;SDS011;11825;51.898;8.202;2022-12-18T05:16:19;33.03;;;21.43;;
14939;SDS011;11825;51.898;8.202;2022-12-18T05:21:21;32.57;;;21.03;;
14939;SDS011;11825;51.898;8.202;2022-12-18T05:26:23;34.50;;;21.37;;
14939;SDS011;11825;51.898;8.202;2022-12-18T05:31:25;30.33;;;20.87;;
14939;SDS011;11825;51.898;8.202;2022-12-18T05:36:26;31.50;;;20.47;;
14939;SDS011;11825;51.898;8.202;2022-12-18T05:41:28;31.67;;;18.20;;
14939;SDS011;11825;51.898;8.202;2022-12-18T05:46:30;30.00;;;17.93;;
14939;SDS011;11825;51.898;8.202;2022-12-18T05:51:32;28.83;;;18.73;;
14939;SDS011;11825;51.898;8.202;2022-12-18T05:56:34;31.23;;;18.57;;
14939;SDS011;11825;51.898;8.202;2022-12-18T06:01:35;26.20;;;16.27;;
14939;SDS011;11825;51.898;8.202;2022-12-18T06:06:37;23.30;;;16.80;;
14939;SDS011;11825;51.898;8.202;2022-12-18T06:11:39;27.83;;;15.67;;
14939;SDS011;11825;51.898;8.202;2022-12-18T06:16:41;22.07;;;14.40;;
14939;SDS011;11825;51.898;8.202;2022-12-18T06:21:42;19.07;;;12.83;;
14939;SDS011;11825;51.898;8.202;2022-12-18T06:26:44;20.97;;;14.17;;
14939;SDS011;11825;51.898;8.202;2022-12-18T06:31:46;22.40;;;14.93;;
14939;SDS011;11825;51.898;8.202;2022-12-18T06:36:48;24.00;;;15.27;;
14939;SDS011;11825;51.898;8.202;2022-12-18T06:41:49;18.87;;;12.90;;
14939;SDS011;11825;51.898;8.202;2022-12-18T06:46:51;16.73;;;11.37;;
14939;SDS011;11825;51.898;8.202;2022-12-18T06:51:53;20.67;;;12.87;;
14939;SDS011;11825;51.898;8.202;2022-12-18T06:56:54;19.43;;;12.13;;
14939;SDS011;11825;51.898;8.202;2022-12-18T07:01:56;17.27;;;11.33;;
14939;SDS011;11825;51.898;8.202;2022-12-18T07:06:59;15.47;;;10.53;;
14939;SDS011;11825;51.898;8.202;2022-12-18T07:12:01;17.20;;;11.30;;
14939;SDS011;11825;51.898;8.202;2022-12-18T07:17:03;17.77;;;10.93;;
14939;SDS011;11825;51.898;8.202;2022-12-18T07:22:06;16.43;;;10.23;;
14939;SDS011;11825;51.898;8.202;2022-12-18T07:27:08;18.33;;;11.80;;
14939;SDS011;11825;51.898;8.202;2022-12-18T07:32:10;18.03;;;12.10;;
14939;SDS011;11825;51.898;8.202;2022-12-18T07:37:12;16.23;;;11.17;;
14939;SDS011;11825;51.898;8.202;2022-12-18T07:42:14;19.43;;;10.73;;
14939;SDS011;11825;51.898;8.202;2022-12-18T07:47:33;21.27;;;10.63;;
14939;SDS011;11825;51.898;8.202;2022-12-18T07:52:36;19.73;;;11.00;;
14939;SDS011;11825;51.898;8.202;2022-12-18T07:57:38;16.87;;;11.00;;
14939;SDS011;11825;51.898;8.202;2022-12-18T08:03:00;17.07;;;12.87;;
14939;SDS011;11825;51.898;8.202;2022-12-18T08:08:02;18.80;;;12.00;;
14939;SDS011;11825;51.898;8.202;2022-12-18T08:13:03;22.23;;;15.03;;
14939;SDS011;11825;51.898;8.202;2022-12-18T08:18:05;19.57;;;13.80;;
14939;SDS011;11825;51.898;8.202;2022-12-18T08:23:14;17.73;;;12.23;;
14939;SDS011;11825;51.898;8.202;2022-12-18T08:28:15;18.50;;;13.53;;
14939;SDS011;11825;51.898;8.202;2022-12-18T08:33:17;24.97;;;17.47;;
14939;SDS011;11825;51.898;8.202;2022-12-18T08:38:19;24.13;;;17.03;;
14939;SDS011;11825;51.898;8.202;2022-12-18T08:43:21;23.03;;;15.20;;
14939;SDS011;11825;51.898;8.202;2022-12-18T08:48:42;24.53;;;16.13;;
14939;SDS011;11825;51.898;8.202;2022-12-18T08:53:43;20.50;;;14.17;;
14939;SDS011;11825;51.898;8.202;2022-12-18T08:58:46;26.10;;;16.70;;
14939;SDS011;11825;51.898;8.202;2022-12-18T09:03:49;23.20;;;14.73;;
14939;SDS011;11825;51.898;8.202;2022-12-18T09:08:51;22.17;;;18.47;;
14939;SDS011;11825;51.898;8.202;2022-12-18T09:13:53;18.47;;;14.63;;
14939;SDS011;11825;51.898;8.202;2022-12-18T09:18:55;15.13;;;12.57;;
14939;SDS011;11825;51.898;8.202;2022-12-18T09:24:00;14.63;;;12.30;;
14939;SDS011;11825;51.898;8.202;2022-12-18T09:29:02;16.30;;;12.17;;
14939;SDS011;11825;51.898;8.202;2022-12-18T09:34:04;14.90;;;10.67;;
14939;SDS011;11825;51.898;8.202;2022-12-18T09:39:06;14.93;;;11.10;;
14939;SDS011;11825;51.898;8.202;2022-12-18T09:44:11;16.80;;;11.10;;
14939;SDS011;11825;51.898;8.202;2022-12-18T09:49:22;13.87;;;9.80;;
14939;SDS011;11825;51.898;8.202;2022-12-18T09:54:26;13.60;;;11.13;;
14939;SDS011;11825;51.898;8.202;2022-12-18T09:59:46;12.97;;;11.23;;
14939;SDS011;11825;51.898;8.202;2022-12-18T10:10:23;14.27;;;10.87;;
14939;SDS011;11825;51.898;8.202;2022-12-18T10:20:56;14.33;;;10.80;;
14939;SDS011;11825;51.898;8.202;2022-12-18T10:26:08;13.77;;;9.33;;
14939;SDS011;11825;51.898;8.202;2022-12-18T10:31:15;14.37;;;10.30;;
14939;SDS011;11825;51.898;8.202;2022-12-18T10:36:19;10.80;;;8.37;;
14939;SDS011;11825;51.898;8.202;2022-12-18T10:41:25;16.17;;;11.17;;
14939;SDS011;11825;51.898;8.202;2022-12-18T10:46:29;14.60;;;10.90;;
14939;SDS011;11825;51.898;8.202;2022-12-18T10:51:32;16.67;;;11.13;;
14939;SDS011;11825;51.898;8.202;2022-12-18T10:56:35;15.63;;;9.13;;
14939;SDS011;11825;51.898;8.202;2022-12-18T11:01:51;11.83;;;8.70;;
14939;SDS011;11825;51.898;8.202;2022-12-18T11:07:01;12.13;;;10.77;;
14939;SDS011;11825;51.898;8.202;2022-12-18T11:12:05;12.13;;;8.80;;
14939;SDS011;11825;51.898;8.202;2022-12-18T11:17:28;12.77;;;8.67;;
14939;SDS011;11825;51.898;8.202;2022-12-18T11:22:34;11.67;;;8.90;;
14939;SDS011;11825;51.898;8.202;2022-12-18T11:27:37;15.17;;;10.47;;
14939;SDS011;11825;51.898;8.202;2022-12-18T11:32:40;13.53;;;9.97;;
14939;SDS011;11825;51.898;8.202;2022-12-18T11:37:49;16.00;;;10.13;;
14939;SDS011;11825;51.898;8.202;2022-12-18T11:42:58;13.57;;;9.13;;
14939;SDS011;11825;51.898;8.202;2022-12-18T11:53:18;12.57;;;9.73;;
14939;SDS011;11825;51.898;8.202;2022-12-18T12:03:39;16.77;;;10.77;;
14939;SDS011;11825;51.898;8.202;2022-12-18T12:25:46;12.77;;;8.80;;
14939;SDS011;11825;51.898;8.202;2022-12-18T12:41:38;11.13;;;9.47;;
14939;SDS011;11825;51.898;8.202;2022-12-18T12:47:01;11.47;;;9.80;;
14939;SDS011;11825;51.898;8.202;2022-12-18T12:52:30;11.47;;;9.40;;
14939;SDS011;11825;51.898;8.202;2022-12-18T12:57:38;16.30;;;10.30;;
14939;SDS011;11825;51.898;8.202;2022-12-18T13:07:54;16.43;;;9.83;;
14939;SDS011;11825;51.898;8.202;2022-12-18T13:13:18;16.03;;;11.63;;
14939;SDS011;11825;51.898;8.202;2022-12-18T13:18:24;12.33;;;8.90;;
14939;SDS011;11825;51.898;8.202;2022-12-18T13:23:44;13.03;;;9.10;;
14939;SDS011;11825;51.898;8.202;2022-12-18T13:33:49;11.80;;;8.10;;
14939;SDS011;11825;51.898;8.202;2022-12-18T13:44:30;11.27;;;8.33;;
14939;SDS011;11825;51.898;8.202;2022-12-18T13:49:43;8.83;;;7.40;;
14939;SDS011;11825;51.898;8.202;2022-12-18T13:54:49;14.70;;;8.40;;
14939;SDS011;11825;51.898;8.202;2022-12-18T13:59:54;11.50;;;7.60;;
14939;SDS011;11825;51.898;8.202;2022-12-18T14:04:56;12.57;;;7.30;;
14939;SDS011;11825;51.898;8.202;2022-12-18T14:09:58;11.93;;;7.83;;
14939;SDS011;11825;51.898;8.202;2022-12-18T14:20:32;10.43;;;7.93;;
14939;SDS011;11825;51.898;8.202;2022-12-18T14:25:34;10.10;;;7.00;;
14939;SDS011;11825;51.898;8.202;2022-12-18T14:30:43;7.63;;;5.83;;
14939;SDS011;11825;51.898;8.202;2022-12-18T14:41:06;9.87;;;7.03;;
14939;SDS011;11825;51.898;8.202;2022-12-18T14:51:38;10.63;;;6.97;;
14939;SDS011;11825;51.898;8.202;2022-12-18T14:56:44;11.37;;;7.60;;
14939;SDS011;11825;51.898;8.202;2022-12-18T15:02:26;11.07;;;6.77;;
14939;SDS011;11825;51.898;8.202;2022-12-18T15:07:39;9.80;;;7.27;;
14939;SDS011;11825;51.898;8.202;2022-12-18T15:18:00;19.47;;;7.43;;
14939;SDS011;11825;51.898;8.202;2022-12-18T15:23:18;7.93;;;6.27;;
14939;SDS011;11825;51.898;8.202;2022-12-18T15:33:40;10.50;;;7.83;;
14939;SDS011;11825;51.898;8.202;2022-12-18T15:38:47;9.53;;;6.67;;
14939;SDS011;11825;51.898;8.202;2022-12-18T15:43:52;7.37;;;5.80;;
14939;SDS011;11825;51.898;8.202;2022-12-18T15:48:55;8.30;;;6.73;;
14939;SDS011;11825;51.898;8.202;2022-12-18T15:54:03;8.07;;;6.70;;
14939;SDS011;11825;51.898;8.202;2022-12-18T15:59:13;11.67;;;7.67;;
14939;SDS011;11825;51.898;8.202;2022-12-18T16:04:29;11.00;;;9.00;;
14939;SDS011;11825;51.898;8.202;2022-12-18T16:09:31;9.50;;;7.40;;
14939;SDS011;11825;51.898;8.202;2022-12-18T16:32:24;11.13;;;9.13;;
14939;SDS011;11825;51.898;8.202;2022-12-18T16:37:26;11.73;;;9.53;;
14939;SDS011;11825;51.898;8.202;2022-12-18T16:42:28;12.93;;;8.90;;
14939;SDS011;11825;51.898;8.202;2022-12-18T16:47:45;12.43;;;10.73;;
14939;SDS011;11825;51.898;8.202;2022-12-18T16:52:47;13.00;;;8.87;;
14939;SDS011;11825;51.898;8.202;2022-12-18T17:03:58;16.53;;;10.67;;
14939;SDS011;11825;51.898;8.202;2022-12-18T17:14:51;17.03;;;13.33;;
14939;SDS011;11825;51.898;8.202;2022-12-18T17:26:20;15.63;;;11.83;;
14939;SDS011;11825;51.898;8.202;2022-12-18T17:31:23;17.10;;;12.73;;
14939;SDS011;11825;51.898;8.202;2022-12-18T17:42:56;16.80;;;13.00;;
14939;SDS011;11825;51.898;8.202;2022-12-18T17:48:50;21.80;;;15.43;;
14939;SDS011;11825;51.898;8.202;2022-12-18T17:54:18;19.97;;;14.47;;
14939;SDS011;11825;51.898;8.202;2022-12-18T17:59:23;21.33;;;15.67;;
14939;SDS011;11825;51.898;8.202;2022-12-18T18:10:41;22.57;;;17.33;;
14939;SDS011;11825;51.898;8.202;2022-12-18T18:15:56;27.40;;;19.00;;
14939;SDS011;11825;51.898;8.202;2022-12-18T18:20:59;24.07;;;17.23;;
14939;SDS011;11825;51.898;8.202;2022-12-18T18:31:39;24.57;;;19.00;;
14939;SDS011;11825;51.898;8.202;2022-12-18T18:36:52;28.70;;;19.20;;
14939;SDS011;11825;51.898;8.202;2022-12-18T18:47:19;27.77;;;19.03;;
14939;SDS011;11825;51.898;8.202;2022-12-18T18:52:21;28.63;;;19.53;;
14939;SDS011;11825;51.898;8.202;2022-12-18T18:57:22;29.43;;;20.47;;
14939;SDS011;11825;51.898;8.202;2022-12-18T19:02:31;27.93;;;20.07;;
14939;SDS011;11825;51.898;8.202;2022-12-18T19:07:32;35.23;;;20.00;;
14939;SDS011;11825;51.898;8.202;2022-12-18T19:12:34;34.77;;;23.07;;
14939;SDS011;11825;51.898;8.202;2022-12-18T19:17:55;31.87;;;22.53;;
14939;SDS011;11825;51.898;8.202;2022-12-18T19:22:57;31.50;;;21.17;;
14939;SDS011;11825;51.898;8.202;2022-12-18T19:27:59;29.63;;;21.47;;
14939;SDS011;11825;51.898;8.202;2022-12-18T19:33:05;33.43;;;21.67;;
14939;SDS011;11825;51.898;8.202;2022-12-18T19:38:27;31.07;;;21.37;;
14939;SDS011;11825;51.898;8.202;2022-12-18T19:43:37;32.70;;;23.90;;
14939;SDS011;11825;51.898;8.202;2022-12-18T19:48:45;29.83;;;21.83;;
14939;SDS011;11825;51.898;8.202;2022-12-18T19:54:17;36.73;;;23.03;;
14939;SDS011;11825;51.898;8.202;2022-12-18T19:59:19;34.27;;;23.03;;
14939;SDS011;11825;51.898;8.202;2022-12-18T20:04:22;30.40;;;21.63;;
14939;SDS011;11825;51.898;8.202;2022-12-18T20:09:24;36.00;;;24.10;;
14939;SDS011;11825;51.898;8.202;2022-12-18T20:14:28;35.97;;;24.47;;
14939;SDS011;11825;51.898;8.202;2022-12-18T20:20:09;39.47;;;26.13;;
14939;SDS011;11825;51.898;8.202;2022-12-18T20:25:17;37.23;;;24.47;;
14939;SDS011;11825;51.898;8.202;2022-12-18T20:30:23;35.30;;;23.67;;
14939;SDS011;11825;51.898;8.202;2022-12-18T20:35:28;34.13;;;23.67;;
14939;SDS011;11825;51.898;8.202;2022-12-18T20:40:34;39.63;;;28.13;;
14939;SDS011;11825;51.898;8.202;2022-12-18T20:45:36;37.90;;;24.47;;
14939;SDS011;11825;51.898;8.202;2022-12-18T20:50:55;37.70;;;24.90;;
14939;SDS011;11825;51.898;8.202;2022-12-18T20:56:06;33.70;;;24.50;;
14939;SDS011;11825;51.898;8.202;2022-12-18T21:01:22;37.03;;;24.83;;
14939;SDS011;11825;51.898;8.202;2022-12-18T21:06:25;37.10;;;22.43;;
14939;SDS011;11825;51.898;8.202;2022-12-18T21:11:41;32.87;;;22.63;;
14939;SDS011;11825;51.898;8.202;2022-12-18T21:17:03;31.57;;;21.93;;
14939;SDS011;11825;51.898;8.202;2022-12-18T21:22:06;33.17;;;22.40;;
14939;SDS011;11825;51.898;8.202;2022-12-18T21:27:10;36.37;;;25.03;;
14939;SDS011;11825;51.898;8.202;2022-12-18T21:32:20;36.93;;;21.77;;
14939;SDS011;11825;51.898;8.202;2022-12-18T21:37:28;38.30;;;24.17;;
14939;SDS011;11825;51.898;8.202;2022-12-18T21:42:49;35.17;;;21.50;;
14939;SDS011;11825;51.898;8.202;2022-12-18T21:48:11;31.10;;;22.67;;
14939;SDS011;11825;51.898;8.202;2022-12-18T21:53:13;37.43;;;22.80;;
14939;SDS011;11825;51.898;8.202;2022-12-18T21:58:15;48.10;;;30.83;;
14939;SDS011;11825;51.898;8.202;2022-12-18T22:03:16;34.27;;;22.57;;
14939;SDS011;11825;51.898;8.202;2022-12-18T22:08:19;38.47;;;23.20;;
14939;SDS011;11825;51.898;8.202;2022-12-18T22:13:21;34.77;;;22.73;;
14939;SDS011;11825;51.898;8.202;2022-12-18T22:18:23;34.37;;;22.67;;
14939;SDS011;11825;51.898;8.202;2022-12-18T22:23:30;33.63;;;22.43;;
14939;SDS011;11825;51.898;8.202;2022-12-18T22:28:52;33.23;;;21.97;;
14939;SDS011;11825;51.898;8.202;2022-12-18T22:34:12;38.70;;;23.80;;
14939;SDS011;11825;51.898;8.202;2022-12-18T22:39:15;36.23;;;22.23;;
14939;SDS011;11825;51.898;8.202;2022-12-18T22:44:18;39.23;;;23.87;;
14939;SDS011;11825;51.898;8.202;2022-12-18T22:49:21;34.20;;;21.77;;
14939;SDS011;11825;51.898;8.202;2022-12-18T22:54:23;39.80;;;23.60;;
14939;SDS011;11825;51.898;8.202;2022-12-18T22:59:25;32.73;;;22.70;;
14939;SDS011;11825;51.898;8.202;2022-12-18T23:04:27;33.97;;;22.10;;
14939;SDS011;11825;51.898;8.202;2022-12-18T23:09:36;34.47;;;22.73;;
14939;SDS011;11825;51.898;8.202;2022-12-18T23:14:38;31.20;;;22.47;;
14939;SDS011;11825;51.898;8.202;2022-12-18T23:19:39;38.63;;;23.07;;
14939;SDS011;11825;51.898;8.202;2022-12-18T23:24:49;34.80;;;22.53;;
14939;SDS011;11825;51.898;8.202;2022-12-18T23:29:50;36.47;;;23.83;;
14939;SDS011;11825;51.898;8.202;2022-12-18T23:34:53;39.77;;;24.23;;
14939;SDS011;11825;51.898;8.202;2022-12-18T23:39:55;37.97;;;21.80;;
14939;SDS011;11825;51.898;8.202;2022-12-18T23:44:56;41.57;;;24.17;;
14939;SDS011;11825;51.898;8.202;2022-12-18T23:49:59;38.70;;;24.63;;
14939;SDS011;11825;51.898;8.202;2022-12-18T23:55:01;35.00;;;22.17;;
